createdAt,value
2019-04-26T00:04:33.825Z,0.00
2019-04-26T00:09:39.585Z,0.00
2019-04-26T00:14:54.842Z,0.00
2019-04-26T00:19:59.128Z,0.00
2019-04-26T00:25:03.549Z,0.00
2019-04-26T00:30:07.713Z,0.00
2019-04-26T00:35:12.922Z,0.00
2019-04-26T00:40:18.229Z,0.00
2019-04-26T00:45:23.825Z,0.00
2019-04-26T00:50:28.087Z,0.00
2019-04-26T00:55:34.687Z,0.00
2019-04-26T01:00:38.765Z,0.00
2019-04-26T01:05:42.768Z,0.00
2019-04-26T01:10:46.851Z,0.00
2019-04-26T01:15:50.850Z,0.00
2019-04-26T01:20:57.879Z,0.00
2019-04-26T01:26:14.395Z,0.00
2019-04-26T01:31:19.872Z,0.00
2019-04-26T01:36:26.930Z,0.00
2019-04-26T01:41:40.079Z,0.00
2019-04-26T01:46:46.648Z,0.00
2019-04-26T01:51:58.427Z,0.00
2019-04-26T01:57:04.986Z,0.00
2019-04-26T02:02:25.910Z,0.00
2019-04-26T02:07:38.722Z,0.00
2019-04-26T02:12:45.950Z,0.00
2019-04-26T02:17:52.178Z,0.00
2019-04-26T02:23:06.718Z,0.00
2019-04-26T02:28:10.801Z,0.00
2019-04-26T02:33:15.550Z,0.00
2019-04-26T02:38:20.192Z,0.00
2019-04-26T02:43:28.633Z,0.00
2019-04-26T02:48:51.652Z,0.00
2019-04-26T02:54:04.837Z,0.00
2019-04-26T02:59:38.187Z,0.00
2019-04-26T03:04:44.826Z,0.00
2019-04-26T03:09:51.832Z,0.00
2019-04-26T03:15:13.693Z,0.00
2019-04-26T03:20:19.164Z,0.00
2019-04-26T03:25:32.827Z,0.00
2019-04-26T03:31:00.742Z,0.00
2019-04-26T03:36:25.699Z,0.00
2019-04-26T03:42:02.108Z,0.00
2019-04-26T03:47:10.035Z,0.00
2019-04-26T03:52:23.602Z,0.00
2019-04-26T03:57:41.846Z,0.00
2019-04-26T04:03:05.290Z,1.00
2019-04-26T04:08:13.264Z,0.00
2019-04-26T04:14:00.573Z,0.50
2019-04-26T04:19:13.787Z,0.20
2019-04-26T04:24:28.438Z,0.00
2019-04-26T04:29:50.024Z,1.00
2019-04-26T04:34:53.621Z,2.00
2019-04-26T04:40:19.378Z,1.00
2019-04-26T04:46:12.901Z,1.00
2019-04-26T04:51:42.894Z,1.00
2019-04-26T04:57:30.605Z,1.00
2019-04-26T05:02:53.446Z,1.00
2019-04-26T05:08:21.073Z,2.00
2019-04-26T05:13:58.645Z,1.50
2019-04-26T05:19:39.864Z,1.50
2019-04-26T05:25:19.750Z,2.00
2019-04-26T05:31:17.666Z,2.00
2019-04-26T05:36:31.280Z,1.00
2019-04-26T05:42:22.082Z,1.75
2019-04-26T05:48:03.174Z,2.20
2019-04-26T05:53:59.531Z,1.00
2019-04-26T05:59:37.880Z,2.00
2019-04-26T06:05:05.797Z,2.00
2019-04-26T06:10:25.049Z,1.20
2019-04-26T06:15:53.067Z,1.00
2019-04-26T06:21:13.843Z,0.80
2019-04-26T06:27:10.324Z,1.50
2019-04-26T06:32:13.243Z,2.00
2019-04-26T06:37:35.458Z,2.00
2019-04-26T06:43:26.792Z,1.25
2019-04-26T06:49:13.891Z,4.25
2019-04-26T06:54:31.185Z,3.25
2019-04-26T06:59:52.638Z,4.40
2019-04-26T07:05:20.461Z,4.00
2019-04-26T07:10:58.193Z,3.40
2019-04-26T07:16:41.684Z,4.80
2019-04-26T07:22:35.868Z,4.75
2019-04-26T07:28:06.412Z,4.60
2019-04-26T07:33:30.402Z,3.00
2019-04-26T07:39:19.467Z,4.25
2019-04-26T07:45:02.068Z,4.00
2019-04-26T07:50:48.804Z,4.00
2019-04-26T07:56:00.594Z,3.00
2019-04-26T08:01:31.817Z,1.80
2019-04-26T08:06:43.907Z,1.00
2019-04-26T08:11:55.073Z,2.00
2019-04-26T08:17:37.398Z,2.00
2019-04-26T08:22:45.038Z,1.60
2019-04-26T08:27:51.701Z,2.00
2019-04-26T08:33:02.057Z,2.00
2019-04-26T08:38:16.211Z,1.25
2019-04-26T08:43:50.072Z,1.40
2019-04-26T08:49:06.749Z,1.75
2019-04-26T08:54:19.185Z,1.50
2019-04-26T08:59:28.897Z,1.00
2019-04-26T09:04:41.312Z,0.75
2019-04-26T09:09:57.026Z,1.20
2019-04-26T09:14:57.663Z,1.00
2019-04-26T09:20:07.119Z,2.00
2019-04-26T09:25:22.601Z,1.00
2019-04-26T09:30:34.290Z,1.75
2019-04-26T09:35:35.196Z,1.40
2019-04-26T09:40:39.471Z,1.80
2019-04-26T09:46:01.231Z,1.00
2019-04-26T09:51:05.888Z,3.50
2019-04-26T09:56:09.887Z,3.00
2019-04-26T10:01:14.039Z,1.75
2019-04-26T10:06:18.204Z,3.00
2019-04-26T10:11:24.628Z,3.60
2019-04-26T10:16:37.711Z,3.00
2019-04-26T10:21:41.745Z,2.00
2019-04-26T10:26:45.759Z,2.00
2019-04-26T10:31:51.789Z,1.25
2019-04-26T10:36:57.058Z,2.00
2019-04-26T10:42:01.317Z,2.00
2019-04-26T10:47:06.043Z,2.00
2019-04-26T10:52:17.111Z,1.00
2019-04-26T10:57:29.408Z,3.00
2019-04-26T11:02:33.575Z,2.00
2019-04-26T11:07:37.580Z,2.00
2019-04-26T11:12:43.321Z,2.75
2019-04-26T11:17:50.020Z,2.00
2019-04-26T11:22:53.309Z,4.80
2019-04-26T11:27:57.410Z,2.00
2019-04-26T11:33:01.396Z,1.50
2019-04-26T11:38:05.656Z,2.60
2019-04-26T11:43:09.639Z,3.00
2019-04-26T11:48:14.066Z,2.75
2019-04-26T11:53:18.062Z,2.00
2019-04-26T11:58:23.599Z,2.00
2019-04-26T12:03:27.837Z,2.00
2019-04-26T12:08:41.305Z,1.50
2019-04-26T12:13:45.403Z,2.50
2019-04-26T12:18:49.414Z,2.00
2019-04-26T12:23:55.440Z,3.00
2019-04-26T12:28:59.225Z,1.50
2019-04-26T12:34:03.229Z,2.00
2019-04-26T12:39:09.021Z,2.40
2019-04-26T12:44:14.777Z,3.00
2019-04-26T12:49:20.358Z,3.00
2019-04-26T12:54:25.053Z,3.60
2019-04-26T12:59:29.119Z,3.00
2019-04-26T13:04:36.132Z,4.40
2019-04-26T13:09:40.840Z,4.00
2019-04-26T13:15:02.626Z,5.00
2019-04-26T13:20:07.011Z,4.00
2019-04-26T13:25:20.247Z,3.00
2019-04-26T13:30:17.273Z,4.00
2019-04-26T13:35:21.440Z,6.00
2019-04-26T13:40:29.250Z,4.40
2019-04-26T13:45:53.352Z,4.75
2019-04-26T13:51:05.631Z,5.00
2019-04-26T13:56:08.620Z,6.00
2019-04-26T14:01:14.658Z,5.50
2019-04-26T14:06:19.013Z,9.40
2019-04-26T14:11:28.078Z,9.50
2019-04-26T14:16:28.825Z,8.50
2019-04-26T14:21:34.483Z,10.00
2019-04-26T14:26:43.921Z,11.50
2019-04-26T14:31:51.412Z,11.00
2019-04-26T14:37:05.964Z,12.00
2019-04-26T14:41:59.870Z,12.00
2019-04-26T14:47:13.511Z,10.00
2019-04-26T14:52:09.782Z,11.50
2019-04-26T14:57:21.088Z,9.00
2019-04-26T15:02:37.040Z,10.50
2019-04-26T15:07:49.456Z,12.00
2019-04-26T15:12:48.896Z,11.25
2019-04-26T15:17:53.637Z,11.00
2019-04-26T15:22:58.471Z,11.40
2019-04-26T15:28:02.591Z,12.80
2019-04-26T15:33:08.947Z,10.00
2019-04-26T15:38:13.100Z,13.40
2019-04-26T15:43:36.089Z,11.50
2019-04-26T15:49:12.535Z,11.40
2019-04-26T15:54:17.930Z,5.80
2019-04-26T15:59:25.283Z,6.20
2019-04-26T16:04:28.396Z,5.75
2019-04-26T16:09:32.676Z,7.60
2019-04-26T16:14:37.117Z,8.00
2019-04-26T16:19:41.286Z,8.60
2019-04-26T16:24:45.364Z,9.00
2019-04-26T16:30:16.687Z,7.00
2019-04-26T16:35:25.380Z,7.20
2019-04-26T16:40:27.072Z,7.00
2019-04-26T16:45:32.752Z,6.60
2019-04-26T16:50:44.007Z,6.80
2019-04-26T16:55:50.593Z,7.00
2019-04-26T17:00:54.761Z,6.00
2019-04-26T17:06:04.658Z,6.50
2019-04-26T17:11:00.780Z,5.60
2019-04-26T17:16:05.799Z,5.00
2019-04-26T17:21:10.033Z,5.00
2019-04-26T17:26:33.753Z,6.00
2019-04-26T17:31:37.979Z,5.60
2019-04-26T17:36:42.058Z,5.00
2019-04-26T17:41:50.739Z,5.00
2019-04-26T17:46:56.250Z,4.00
2019-04-26T17:51:59.832Z,4.75
2019-04-26T17:57:04.335Z,4.00
2019-04-26T18:02:24.112Z,4.00
2019-04-26T18:07:37.764Z,4.50
2019-04-26T18:12:20.819Z,3.80
2019-04-26T18:18:23.322Z,4.00
2019-04-26T18:23:01.218Z,4.00
2019-04-26T18:28:08.777Z,4.75
2019-04-26T18:33:13.335Z,3.00
2019-04-26T18:38:17.288Z,2.80
2019-04-26T18:43:24.074Z,4.80
2019-04-26T18:48:27.145Z,3.40
2019-04-26T18:53:49.003Z,3.00
2019-04-26T18:58:55.639Z,4.00
2019-04-26T19:04:00.287Z,3.50
2019-04-26T19:09:06.738Z,3.80
2019-04-26T19:14:32.579Z,3.50
2019-04-26T19:19:54.555Z,4.00
2019-04-26T19:24:58.560Z,3.00
2019-04-26T19:30:08.923Z,4.00
2019-04-26T19:35:12.192Z,4.80
2019-04-26T19:40:15.291Z,3.80
2019-04-26T19:45:35.252Z,4.00
2019-04-26T19:50:50.225Z,3.00
2019-04-26T19:56:08.792Z,5.00
2019-04-26T20:01:16.538Z,2.60
2019-04-26T20:06:19.879Z,4.00
2019-04-26T20:11:24.095Z,4.00
2019-04-26T20:16:28.177Z,3.20
2019-04-26T20:21:34.166Z,3.00
2019-04-26T20:26:41.942Z,3.00
2019-04-26T20:32:09.147Z,2.80
2019-04-26T20:37:16.120Z,2.20
2019-04-26T20:42:19.013Z,2.60
2019-04-26T20:47:23.195Z,3.00
2019-04-26T20:52:27.328Z,2.80
2019-04-26T20:57:34.380Z,2.40
2019-04-26T21:02:37.218Z,2.75
2019-04-26T21:07:41.961Z,2.60
2019-04-26T21:12:51.142Z,3.00
2019-04-26T21:17:56.744Z,2.00
2019-04-26T21:23:02.409Z,3.00
2019-04-26T21:28:11.565Z,2.25
2019-04-26T21:33:28.741Z,3.00
2019-04-26T21:38:36.439Z,2.00
2019-04-26T21:43:46.427Z,2.00
2019-04-26T21:48:50.454Z,2.60
2019-04-26T21:53:54.459Z,2.00
2019-04-26T21:58:58.498Z,1.20
2019-04-26T22:04:03.024Z,2.00
2019-04-26T22:09:35.045Z,1.25
2019-04-26T22:14:36.842Z,2.00
2019-04-26T22:20:12.460Z,1.75
2019-04-26T22:25:12.948Z,1.40
2019-04-26T22:30:28.278Z,0.60
2019-04-26T22:35:28.812Z,2.00
2019-04-26T22:40:33.527Z,2.00
2019-04-26T22:45:50.863Z,1.00
2019-04-26T22:50:58.624Z,2.25
2019-04-26T22:56:01.435Z,1.00
2019-04-26T23:01:06.627Z,1.00
2019-04-26T23:06:12.750Z,0.80
2019-04-26T23:11:17.258Z,1.00
2019-04-26T23:16:55.908Z,1.00
2019-04-26T23:21:55.580Z,1.20
2019-04-26T23:26:57.957Z,1.00
2019-04-26T23:32:03.594Z,1.60
2019-04-26T23:37:07.972Z,0.75
2019-04-26T23:42:12.340Z,1.20
2019-04-26T23:47:21.087Z,1.00
2019-04-26T23:52:24.533Z,1.50
2019-04-26T23:57:31.347Z,1.00
